createdAt,value
2023-01-22T00:00:11.148Z,9.25
2023-01-22T00:02:39.646Z,9.54
2023-01-22T00:05:07.344Z,9.30
2023-01-22T00:07:34.523Z,9.75
2023-01-22T00:10:01.674Z,9.85
2023-01-22T00:12:29.093Z,9.33
2023-01-22T00:14:56.232Z,9.70
2023-01-22T00:17:23.470Z,9.41
2023-01-22T00:19:51.031Z,9.08
2023-01-22T00:22:18.180Z,9.01
2023-01-22T00:24:45.319Z,9.59
2023-01-22T00:27:12.752Z,10.08
2023-01-22T00:29:40.986Z,9.71
2023-01-22T00:32:08.318Z,10.39
2023-01-22T00:34:35.810Z,9.52
2023-01-22T00:37:02.967Z,9.47
2023-01-22T00:39:30.130Z,9.11
2023-01-22T00:41:59.480Z,9.73
2023-01-22T00:44:26.785Z,9.66
2023-01-22T00:46:54.484Z,10.00
2023-01-22T00:49:21.917Z,9.58
2023-01-22T00:51:49.045Z,10.32
2023-01-22T00:54:16.167Z,9.17
2023-01-22T00:56:43.605Z,9.66
2023-01-22T00:59:10.832Z,9.71
2023-01-22T01:01:38.724Z,9.54
2023-01-22T01:04:06.380Z,9.91
2023-01-22T01:06:33.687Z,9.99
2023-01-22T01:09:01.770Z,9.69
2023-01-22T01:11:29.826Z,9.87
2023-01-22T01:13:57.040Z,9.52
2023-01-22T01:16:26.649Z,9.82
2023-01-22T01:18:55.632Z,9.90
2023-01-22T01:21:23.071Z,9.48
2023-01-22T01:23:50.221Z,9.58
2023-01-22T01:26:18.599Z,8.84
2023-01-22T01:28:45.808Z,9.31
2023-01-22T01:31:14.065Z,9.73
2023-01-22T01:33:41.969Z,9.27
2023-01-22T01:36:14.016Z,9.01
2023-01-22T01:38:42.312Z,10.04
2023-01-22T01:41:10.262Z,10.60
2023-01-22T01:43:37.447Z,10.99
2023-01-22T01:46:05.351Z,10.68
2023-01-22T01:48:42.358Z,10.32
2023-01-22T01:51:15.229Z,10.34
2023-01-22T01:53:43.257Z,9.45
2023-01-22T01:56:14.484Z,9.43
2023-01-22T01:58:41.895Z,8.73
2023-01-22T02:01:11.250Z,9.51
2023-01-22T02:03:39.554Z,9.48
2023-01-22T02:06:09.502Z,9.87
2023-01-22T02:08:36.775Z,9.97
2023-01-22T02:11:04.408Z,9.24
2023-01-22T02:13:32.436Z,9.66
2023-01-22T02:15:59.897Z,8.46
2023-01-22T02:18:27.453Z,9.18
2023-01-22T02:20:58.611Z,8.88
2023-01-22T02:23:27.107Z,9.48
2023-01-22T02:25:55.728Z,9.83
2023-01-22T02:28:23.073Z,9.29
2023-01-22T02:30:50.651Z,9.09
2023-01-22T02:33:17.883Z,9.58
2023-01-22T02:35:45.219Z,9.41
2023-01-22T02:38:14.179Z,9.18
2023-01-22T02:40:49.289Z,9.50
2023-01-22T02:43:19.901Z,9.66
2023-01-22T02:45:47.168Z,9.25
2023-01-22T02:48:14.512Z,8.19
2023-01-22T02:50:42.059Z,8.26
2023-01-22T02:53:09.470Z,7.46
2023-01-22T02:55:38.399Z,7.07
2023-01-22T02:58:07.239Z,7.91
2023-01-22T03:00:34.489Z,8.16
2023-01-22T03:03:07.709Z,7.54
2023-01-22T03:05:35.235Z,8.63
2023-01-22T03:08:04.432Z,7.99
2023-01-22T03:10:31.630Z,7.41
2023-01-22T03:13:18.787Z,6.74
2023-01-22T03:16:04.678Z,7.63
2023-01-22T03:18:50.934Z,8.38
2023-01-22T03:21:20.313Z,8.10
2023-01-22T03:23:52.119Z,7.73
2023-01-22T03:26:19.823Z,7.14
2023-01-22T03:28:47.514Z,7.93
2023-01-22T03:31:16.102Z,7.75
2023-01-22T03:33:43.641Z,7.11
2023-01-22T03:36:12.733Z,7.47
2023-01-22T03:38:40.547Z,8.20
2023-01-22T03:41:10.107Z,7.11
2023-01-22T03:43:37.737Z,7.34
2023-01-22T03:46:15.954Z,8.19
2023-01-22T03:48:43.707Z,8.00
2023-01-22T03:51:12.494Z,8.31
2023-01-22T03:53:40.052Z,8.40
2023-01-22T03:56:08.872Z,8.33
2023-01-22T03:58:36.881Z,8.44
2023-01-22T04:01:08.855Z,8.62
2023-01-22T04:03:36.566Z,8.77
2023-01-22T04:06:04.160Z,8.69
2023-01-22T04:08:33.703Z,8.76
2023-01-22T04:11:01.497Z,9.01
2023-01-22T04:13:29.515Z,8.63
2023-01-22T04:15:56.882Z,8.77
2023-01-22T04:18:28.153Z,9.36
2023-01-22T04:20:56.489Z,8.32
2023-01-22T04:23:25.297Z,8.50
2023-01-22T04:25:53.057Z,8.69
2023-01-22T04:28:20.545Z,8.04
2023-01-22T04:30:48.869Z,7.94
2023-01-22T04:33:23.253Z,7.76
2023-01-22T04:35:54.152Z,8.36
2023-01-22T04:38:21.608Z,8.92
2023-01-22T04:40:49.823Z,8.75
2023-01-22T04:43:16.982Z,9.31
2023-01-22T04:45:44.465Z,9.10
2023-01-22T04:48:12.730Z,9.84
2023-01-22T04:50:40.208Z,9.59
2023-01-22T04:53:07.764Z,8.82
2023-01-22T04:55:35.185Z,8.65
2023-01-22T04:58:02.679Z,8.99
2023-01-22T05:00:30.305Z,8.34
2023-01-22T05:02:58.600Z,8.55
2023-01-22T05:05:27.401Z,8.43
2023-01-22T05:07:54.909Z,8.73
2023-01-22T05:10:22.800Z,7.83
2023-01-22T05:12:50.484Z,8.11
2023-01-22T05:15:24.418Z,8.47
2023-01-22T05:17:52.790Z,8.33
2023-01-22T05:20:21.014Z,8.25
2023-01-22T05:22:48.685Z,7.60
2023-01-22T05:25:16.931Z,8.67
2023-01-22T05:27:44.464Z,8.70
2023-01-22T05:30:12.787Z,9.05
2023-01-22T05:32:40.223Z,9.06
2023-01-22T05:35:08.019Z,8.60
2023-01-22T05:37:35.405Z,9.36
2023-01-22T05:40:05.391Z,9.20
2023-01-22T05:42:33.551Z,9.03
2023-01-22T05:45:01.376Z,9.69
2023-01-22T05:47:29.637Z,9.38
2023-01-22T05:49:59.109Z,9.62
2023-01-22T05:52:27.353Z,9.51
2023-01-22T05:54:54.593Z,7.85
2023-01-22T05:57:22.781Z,9.66
2023-01-22T05:59:50.151Z,9.91
2023-01-22T06:02:17.369Z,10.45
2023-01-22T06:04:44.938Z,10.79
2023-01-22T06:07:13.477Z,10.78
2023-01-22T06:09:40.686Z,10.75
2023-01-22T06:12:08.276Z,10.04
2023-01-22T06:14:35.481Z,10.33
2023-01-22T06:17:03.394Z,9.68
2023-01-22T06:19:33.886Z,10.46
2023-01-22T06:22:01.092Z,10.33
2023-01-22T06:24:28.966Z,10.20
2023-01-22T06:26:56.596Z,11.04
2023-01-22T06:29:26.021Z,11.12
2023-01-22T06:31:55.038Z,10.52
2023-01-22T06:34:22.613Z,10.89
2023-01-22T06:36:49.776Z,11.27
2023-01-22T06:39:17.860Z,11.22
2023-01-22T06:41:47.103Z,11.15
2023-01-22T06:44:14.942Z,11.26
2023-01-22T06:46:42.596Z,10.69
2023-01-22T06:49:10.591Z,10.73
2023-01-22T06:51:39.114Z,10.15
2023-01-22T06:54:06.956Z,10.75
2023-01-22T06:56:35.677Z,10.61
2023-01-22T06:59:04.055Z,10.51
2023-01-22T07:01:31.252Z,10.69
2023-01-22T07:03:58.808Z,10.74
2023-01-22T07:06:26.005Z,10.43
2023-01-22T07:08:54.074Z,10.89
2023-01-22T07:11:21.492Z,10.85
2023-01-22T07:13:48.641Z,10.91
2023-01-22T07:16:15.828Z,10.39
2023-01-22T07:18:43.313Z,10.78
2023-01-22T07:21:10.467Z,10.36
2023-01-22T07:23:37.631Z,10.46
2023-01-22T07:26:05.055Z,10.17
2023-01-22T07:28:33.067Z,9.12
2023-01-22T07:31:00.903Z,9.69
2023-01-22T07:33:29.626Z,8.66
2023-01-22T07:35:57.011Z,9.45
2023-01-22T07:38:24.247Z,8.84
2023-01-22T07:40:51.703Z,8.46
2023-01-22T07:43:18.861Z,8.12
2023-01-22T07:45:46.045Z,9.48
2023-01-22T07:48:13.990Z,9.43
2023-01-22T07:50:41.224Z,8.78
2023-01-22T07:53:08.839Z,8.77
2023-01-22T07:55:37.407Z,8.75
2023-01-22T07:58:05.791Z,8.80
2023-01-22T08:00:34.755Z,9.26
2023-01-22T08:03:03.818Z,9.34
2023-01-22T08:05:30.960Z,10.00
2023-01-22T08:07:58.304Z,10.14
2023-01-22T08:10:25.823Z,10.12
2023-01-22T08:12:53.011Z,10.82
2023-01-22T08:15:20.156Z,10.60
2023-01-22T08:17:48.786Z,9.87
2023-01-22T08:20:16.338Z,9.25
2023-01-22T08:22:45.447Z,9.54
2023-01-22T08:25:13.063Z,9.03
2023-01-22T08:27:40.491Z,8.46
2023-01-22T08:30:08.803Z,8.75
2023-01-22T08:32:36.318Z,8.99
2023-01-22T08:35:03.546Z,7.87
2023-01-22T08:37:30.750Z,7.83
2023-01-22T08:39:58.260Z,8.55
2023-01-22T08:42:25.400Z,7.86
2023-01-22T08:44:52.568Z,7.82
2023-01-22T08:47:19.994Z,7.55
2023-01-22T08:49:47.127Z,7.28
2023-01-22T08:52:14.289Z,7.70
2023-01-22T08:54:41.857Z,7.54
2023-01-22T08:57:08.990Z,7.20
2023-01-22T08:59:36.116Z,7.29
2023-01-22T09:02:03.580Z,7.19
2023-01-22T09:04:30.796Z,7.34
2023-01-22T09:06:57.934Z,7.59
2023-01-22T09:09:26.163Z,8.39
2023-01-22T09:11:53.355Z,9.17
2023-01-22T09:14:20.525Z,9.25
2023-01-22T09:16:49.045Z,8.78
2023-01-22T09:19:16.340Z,8.31
2023-01-22T09:21:43.504Z,7.87
2023-01-22T09:24:10.964Z,8.67
2023-01-22T09:26:38.167Z,8.15
2023-01-22T09:29:06.373Z,8.57
2023-01-22T09:31:34.466Z,8.12
2023-01-22T09:34:01.792Z,8.87
2023-01-22T09:36:29.035Z,8.82
2023-01-22T09:38:56.523Z,7.79
2023-01-22T09:41:37.394Z,9.23
2023-01-22T09:44:17.223Z,8.77
2023-01-22T09:46:45.971Z,9.36
2023-01-22T09:49:32.346Z,8.84
2023-01-22T09:51:59.959Z,9.08
2023-01-22T09:54:28.428Z,8.22
2023-01-22T09:56:56.787Z,8.86
2023-01-22T09:59:25.310Z,8.70
2023-01-22T10:01:53.563Z,8.96
2023-01-22T10:04:27.104Z,8.95
2023-01-22T10:06:55.563Z,9.43
2023-01-22T10:09:24.564Z,9.47
2023-01-22T10:11:52.943Z,8.97
2023-01-22T10:14:20.777Z,9.16
2023-01-22T10:16:49.169Z,9.03
2023-01-22T10:19:22.715Z,7.98
2023-01-22T10:22:00.339Z,8.40
2023-01-22T10:24:28.337Z,8.78
2023-01-22T10:26:56.075Z,8.56
2023-01-22T10:29:29.460Z,8.74
2023-01-22T10:32:16.008Z,9.02
2023-01-22T10:34:43.157Z,9.59
2023-01-22T10:37:11.307Z,9.01
2023-01-22T10:39:39.791Z,7.60
2023-01-22T10:42:06.984Z,8.29
2023-01-22T10:44:34.504Z,8.07
2023-01-22T10:47:08.871Z,8.78
2023-01-22T10:49:36.640Z,8.24
2023-01-22T10:52:07.203Z,8.95
2023-01-22T10:54:35.508Z,8.37
2023-01-22T10:57:23.309Z,8.20
2023-01-22T10:59:51.542Z,8.72
2023-01-22T11:02:21.057Z,8.51
2023-01-22T11:04:48.255Z,9.15
2023-01-22T11:07:27.202Z,9.62
2023-01-22T11:10:03.718Z,9.70
2023-01-22T11:12:35.934Z,10.11
2023-01-22T11:15:11.668Z,9.77
2023-01-22T11:17:39.452Z,9.02
2023-01-22T11:20:16.944Z,9.69
2023-01-22T11:22:45.521Z,9.74
2023-01-22T11:25:13.006Z,9.72
2023-01-22T11:27:53.306Z,10.06
2023-01-22T11:30:24.280Z,9.81
2023-01-22T11:32:51.730Z,9.39
2023-01-22T11:35:24.802Z,8.97
2023-01-22T11:37:58.669Z,9.50
2023-01-22T11:40:29.807Z,9.73
2023-01-22T11:43:09.818Z,9.59
2023-01-22T11:45:50.596Z,10.28
2023-01-22T11:48:18.211Z,9.26
2023-01-22T11:50:47.616Z,9.29
2023-01-22T11:53:18.379Z,8.43
2023-01-22T11:56:05.108Z,7.96
2023-01-22T11:58:44.598Z,8.62
2023-01-22T12:01:24.120Z,8.38
2023-01-22T12:03:54.693Z,9.12
2023-01-22T12:06:54.792Z,9.80
2023-01-22T12:09:32.477Z,10.08
2023-01-22T12:12:13.139Z,10.42
2023-01-22T12:14:59.615Z,10.09
2023-01-22T12:17:33.133Z,9.86
2023-01-22T12:20:00.743Z,9.41
2023-01-22T12:22:46.863Z,8.80
2023-01-22T12:25:14.768Z,9.50
2023-01-22T12:27:47.856Z,9.18
2023-01-22T12:30:19.208Z,10.58
2023-01-22T12:32:48.777Z,9.82
2023-01-22T12:35:17.741Z,9.75
2023-01-22T12:37:46.769Z,9.54
2023-01-22T12:40:20.241Z,9.27
2023-01-22T12:42:50.218Z,9.74
2023-01-22T12:45:17.765Z,9.04
2023-01-22T12:47:45.235Z,10.09
2023-01-22T12:50:17.140Z,10.76
2023-01-22T12:52:44.759Z,11.30
2023-01-22T12:55:22.933Z,11.72
2023-01-22T12:57:50.517Z,11.40
2023-01-22T13:00:23.857Z,11.79
2023-01-22T13:02:51.615Z,11.92
2023-01-22T13:05:20.862Z,10.66
2023-01-22T13:07:49.517Z,10.82
2023-01-22T13:10:21.066Z,11.04
2023-01-22T13:12:49.604Z,11.26
2023-01-22T13:15:24.656Z,11.35
2023-01-22T13:18:06.439Z,11.86
2023-01-22T13:20:46.715Z,11.54
2023-01-22T13:23:14.288Z,10.76
2023-01-22T13:25:43.128Z,10.41
2023-01-22T13:28:16.092Z,10.21
2023-01-22T13:30:44.224Z,10.67
2023-01-22T13:33:13.240Z,9.70
2023-01-22T13:35:42.006Z,10.44
2023-01-22T13:38:17.359Z,10.59
2023-01-22T13:40:51.251Z,9.90
2023-01-22T13:43:20.145Z,10.21
2023-01-22T13:45:47.589Z,9.97
2023-01-22T13:48:16.617Z,9.16
2023-01-22T13:51:03.498Z,9.63
2023-01-22T13:53:32.243Z,9.52
2023-01-22T13:56:01.607Z,10.57
2023-01-22T13:58:46.526Z,9.18
2023-01-22T14:01:34.620Z,10.35
2023-01-22T14:04:04.587Z,9.97
2023-01-22T14:06:42.901Z,10.44
2023-01-22T14:09:10.939Z,11.02
2023-01-22T14:11:39.928Z,11.14
2023-01-22T14:14:18.244Z,10.64
2023-01-22T14:16:47.828Z,11.76
2023-01-22T14:19:15.843Z,11.25
2023-01-22T14:21:44.889Z,12.07
2023-01-22T14:24:14.166Z,12.42
2023-01-22T14:26:42.300Z,11.79
2023-01-22T14:29:10.594Z,11.84
2023-01-22T14:31:38.765Z,12.14
2023-01-22T14:34:07.152Z,12.09
2023-01-22T14:36:34.758Z,12.32
2023-01-22T14:39:03.415Z,12.46
2023-01-22T14:41:32.376Z,11.96
2023-01-22T14:44:01.561Z,10.12
2023-01-22T14:46:30.194Z,11.31
2023-01-22T14:49:01.783Z,11.71
2023-01-22T14:51:29.657Z,11.90
2023-01-22T14:53:59.059Z,11.51
2023-01-22T14:56:28.101Z,11.77
2023-01-22T14:58:56.941Z,11.68
2023-01-22T15:01:24.917Z,11.42
2023-01-22T15:03:54.343Z,12.11
2023-01-22T15:06:26.058Z,12.33
2023-01-22T15:08:54.124Z,12.00
2023-01-22T15:11:22.268Z,11.97
2023-01-22T15:13:50.840Z,11.89
2023-01-22T15:16:19.646Z,12.47
2023-01-22T15:18:48.591Z,12.54
2023-01-22T15:21:16.596Z,13.02
2023-01-22T15:23:47.469Z,13.17
2023-01-22T15:26:26.681Z,13.28
2023-01-22T15:28:54.661Z,13.50
2023-01-22T15:31:22.748Z,13.48
2023-01-22T15:33:51.031Z,13.32
2023-01-22T15:36:18.896Z,14.02
2023-01-22T15:38:47.180Z,13.73
2023-01-22T15:41:26.089Z,13.37
2023-01-22T15:43:56.483Z,12.88
2023-01-22T15:46:24.874Z,13.33
2023-01-22T15:48:52.943Z,13.63
2023-01-22T15:51:21.952Z,13.84
2023-01-22T15:53:57.424Z,13.79
2023-01-22T15:56:26.718Z,13.97
2023-01-22T15:58:55.129Z,14.05
2023-01-22T16:01:24.327Z,14.18
2023-01-22T16:03:54.259Z,13.87
2023-01-22T16:06:23.272Z,13.54
2023-01-22T16:08:52.155Z,13.61
2023-01-22T16:11:22.062Z,13.92
2023-01-22T16:13:51.014Z,14.07
2023-01-22T16:16:23.324Z,13.39
2023-01-22T16:18:52.211Z,13.12
2023-01-22T16:21:21.881Z,13.00
2023-01-22T16:23:52.559Z,13.70
2023-01-22T16:26:23.470Z,13.81
2023-01-22T16:28:52.891Z,13.55
2023-01-22T16:31:25.112Z,13.74
2023-01-22T16:33:54.036Z,13.70
2023-01-22T16:36:22.829Z,13.88
2023-01-22T16:38:51.679Z,14.12
2023-01-22T16:41:25.066Z,14.07
2023-01-22T16:44:07.750Z,14.27
2023-01-22T16:46:37.591Z,14.32
2023-01-22T16:49:07.274Z,14.31
2023-01-22T16:51:40.219Z,14.30
2023-01-22T16:54:09.154Z,14.40
2023-01-22T16:56:39.821Z,13.89
2023-01-22T16:59:17.873Z,13.85
2023-01-22T17:01:49.236Z,14.20
2023-01-22T17:04:18.346Z,14.33
2023-01-22T17:06:48.421Z,14.32
2023-01-22T17:09:26.766Z,14.54
2023-01-22T17:11:58.524Z,14.39
2023-01-22T17:14:28.905Z,14.40
2023-01-22T17:17:02.307Z,14.31
2023-01-22T17:19:33.457Z,14.27
2023-01-22T17:22:03.710Z,14.45
2023-01-22T17:24:32.201Z,14.56
2023-01-22T17:27:02.717Z,14.61
2023-01-22T17:29:31.961Z,14.51
2023-01-22T17:32:01.520Z,14.71
2023-01-22T17:34:29.980Z,14.68
2023-01-22T17:37:00.426Z,14.39
2023-01-22T17:39:28.761Z,14.35
2023-01-22T17:41:57.062Z,14.42
2023-01-22T17:44:30.224Z,14.57
2023-01-22T17:47:00.429Z,14.18
2023-01-22T17:49:30.376Z,14.31
2023-01-22T17:51:59.839Z,13.66
2023-01-22T17:54:31.721Z,13.49
2023-01-22T17:56:59.897Z,12.88
2023-01-22T17:59:28.149Z,12.98
2023-01-22T18:01:56.854Z,13.28
2023-01-22T18:04:25.938Z,12.69
2023-01-22T18:06:54.610Z,13.37
2023-01-22T18:09:23.837Z,13.37
2023-01-22T18:11:52.317Z,13.72
2023-01-22T18:14:27.259Z,13.82
2023-01-22T18:16:56.395Z,13.79
2023-01-22T18:19:25.264Z,14.15
2023-01-22T18:21:54.014Z,14.01
2023-01-22T18:24:24.584Z,14.22
2023-01-22T18:26:55.348Z,14.14
2023-01-22T18:29:24.411Z,14.40
2023-01-22T18:31:52.424Z,14.25
2023-01-22T18:34:21.206Z,13.90
2023-01-22T18:36:50.211Z,13.66
2023-01-22T18:39:19.341Z,13.44
2023-01-22T18:41:47.921Z,12.97
2023-01-22T18:44:17.980Z,13.27
2023-01-22T18:46:48.568Z,13.12
2023-01-22T18:49:19.063Z,12.92
2023-01-22T18:51:47.714Z,13.33
2023-01-22T18:54:18.631Z,13.74
2023-01-22T18:56:47.522Z,13.50
2023-01-22T18:59:16.453Z,13.31
2023-01-22T19:01:52.263Z,13.26
2023-01-22T19:04:23.701Z,12.99
2023-01-22T19:06:52.986Z,12.97
2023-01-22T19:09:22.011Z,12.59
2023-01-22T19:11:52.624Z,12.87
2023-01-22T19:14:21.345Z,13.27
2023-01-22T19:16:52.670Z,12.29
2023-01-22T19:19:23.389Z,12.58
2023-01-22T19:21:53.384Z,12.86
2023-01-22T19:24:25.867Z,11.73
2023-01-22T19:26:55.716Z,12.48
2023-01-22T19:29:26.751Z,12.74
2023-01-22T19:31:58.845Z,12.88
2023-01-22T19:34:32.513Z,12.58
2023-01-22T19:37:07.396Z,12.77
2023-01-22T19:39:37.939Z,12.68
2023-01-22T19:42:07.505Z,12.32
2023-01-22T19:44:36.176Z,12.60
2023-01-22T19:47:05.723Z,12.45
2023-01-22T19:49:35.186Z,12.28
2023-01-22T19:52:03.622Z,12.82
2023-01-22T19:54:32.155Z,12.79
2023-01-22T19:57:00.743Z,12.97
2023-01-22T19:59:36.807Z,12.38
2023-01-22T20:02:08.168Z,11.64
2023-01-22T20:04:41.094Z,12.18
2023-01-22T20:07:11.697Z,12.26
2023-01-22T20:09:40.733Z,12.75
2023-01-22T20:12:11.539Z,13.01
2023-01-22T20:14:43.415Z,12.41
2023-01-22T20:17:13.620Z,12.60
2023-01-22T20:19:42.733Z,12.84
2023-01-22T20:22:11.204Z,12.27
2023-01-22T20:24:44.446Z,12.39
2023-01-22T20:27:16.618Z,12.33
2023-01-22T20:29:51.864Z,12.33
2023-01-22T20:32:21.079Z,11.86
2023-01-22T20:34:54.225Z,12.52
2023-01-22T20:37:31.989Z,12.49
2023-01-22T20:40:03.989Z,12.26
2023-01-22T20:42:32.526Z,12.06
2023-01-22T20:45:10.158Z,12.07
2023-01-22T20:47:39.398Z,12.17
2023-01-22T20:50:16.619Z,12.34
2023-01-22T20:52:45.432Z,11.96
2023-01-22T20:55:15.630Z,12.07
2023-01-22T20:57:43.884Z,12.27
2023-01-22T21:00:15.408Z,12.12
2023-01-22T21:02:44.600Z,12.25
2023-01-22T21:05:13.144Z,12.08
2023-01-22T21:07:44.847Z,12.23
2023-01-22T21:10:15.220Z,12.37
2023-01-22T21:12:43.710Z,10.20
2023-01-22T21:15:13.321Z,11.84
2023-01-22T21:17:42.043Z,11.47
2023-01-22T21:20:11.176Z,11.36
2023-01-22T21:22:39.563Z,11.52
2023-01-22T21:25:09.189Z,11.07
2023-01-22T21:27:36.992Z,11.52
2023-01-22T21:30:05.214Z,11.43
2023-01-22T21:32:33.778Z,11.45
2023-01-22T21:35:01.684Z,11.32
2023-01-22T21:37:29.547Z,11.21
2023-01-22T21:39:57.965Z,11.17
2023-01-22T21:42:44.526Z,11.47
2023-01-22T21:45:32.684Z,11.30
2023-01-22T21:48:00.136Z,11.62
2023-01-22T21:50:27.637Z,11.98
2023-01-22T21:52:55.026Z,11.77
2023-01-22T21:55:23.559Z,11.15
2023-01-22T21:57:51.455Z,10.77
2023-01-22T22:00:19.856Z,9.96
2023-01-22T22:02:47.456Z,10.60
2023-01-22T22:05:14.713Z,9.59
2023-01-22T22:07:41.895Z,10.55
2023-01-22T22:10:12.589Z,11.28
2023-01-22T22:12:39.794Z,11.29
2023-01-22T22:15:09.838Z,10.85
2023-01-22T22:17:37.422Z,10.86
2023-01-22T22:20:05.218Z,10.48
2023-01-22T22:22:32.608Z,10.32
2023-01-22T22:25:00.334Z,10.27
2023-01-22T22:27:28.179Z,10.96
2023-01-22T22:29:55.512Z,10.73
2023-01-22T22:32:22.985Z,10.86
2023-01-22T22:34:50.174Z,10.10
2023-01-22T22:37:17.492Z,10.23
2023-01-22T22:39:44.932Z,9.77
2023-01-22T22:42:12.086Z,10.37
2023-01-22T22:44:39.270Z,9.86
2023-01-22T22:47:06.731Z,9.35
2023-01-22T22:49:33.884Z,9.67
2023-01-22T22:52:01.122Z,9.08
2023-01-22T22:54:29.929Z,10.25
2023-01-22T22:57:00.366Z,10.45
2023-01-22T22:59:28.911Z,10.10
2023-01-22T23:01:57.065Z,9.66
2023-01-22T23:04:24.289Z,9.91
2023-01-22T23:06:52.035Z,9.14
2023-01-22T23:09:20.099Z,9.17
2023-01-22T23:11:47.544Z,8.23
2023-01-22T23:14:14.674Z,9.06
2023-01-22T23:16:42.622Z,9.07
2023-01-22T23:19:17.487Z,9.50
2023-01-22T23:21:46.532Z,9.32
2023-01-22T23:24:13.982Z,9.41
2023-01-22T23:26:41.717Z,9.09
2023-01-22T23:29:10.351Z,9.66
2023-01-22T23:31:38.405Z,9.55
2023-01-22T23:34:07.279Z,8.98
2023-01-22T23:36:35.824Z,8.81
2023-01-22T23:39:03.586Z,9.34
2023-01-22T23:41:30.733Z,9.41
2023-01-22T23:43:58.230Z,9.19
2023-01-22T23:46:27.088Z,9.85
2023-01-22T23:48:54.743Z,10.15
2023-01-22T23:51:22.248Z,10.22
2023-01-22T23:53:52.799Z,10.36
2023-01-22T23:56:21.102Z,10.64
2023-01-22T23:58:48.547Z,10.23
